Kingston, Iowa
Current Conditions -  °F | °C
As of 9:53 AM on Thursday 30 Oct 2014 (Local Time) from KBRL Reporting Station
Overcast Overcast  
Wind Chill: 41°   Ceiling: 8000
Heat Index: 45°   Visibility: 10mi
Dew Point: 38°   Wind: 7mph
Humidity: 76%   Direction: 180°S
Pressure: 30.09"   Gusts: NA
Location:  41.0155°N, 91.1055°W
Report Text: KBRL 301453Z AUTO 18006KT 10SM BKN080 OVC095 07/03 A3009 RMK AO2 SLP194 T00720033 58004
Loading
Personal Weather Stations






























Interactive Weather Map
Tropical Storm Tracking
New forecast layout! Learn more

10-Day Weather Forecast

Advertisements
Track Severe Weather on mobile